createdAt,value
2023-05-09T00:01:47.754Z,101869.65
2023-05-09T00:03:43.245Z,101872.10
2023-05-09T00:05:36.059Z,101871.73
2023-05-09T00:07:29.146Z,101869.87
2023-05-09T00:09:21.982Z,101865.15
2023-05-09T00:11:14.925Z,101861.84
2023-05-09T00:13:08.176Z,101860.86
2023-05-09T00:15:01.228Z,101861.33
2023-05-09T00:16:54.118Z,101863.21
2023-05-09T00:18:47.326Z,101860.70
2023-05-09T00:20:41.096Z,101859.38
2023-05-09T00:22:33.942Z,101862.66
2023-05-09T00:24:27.507Z,101860.85
2023-05-09T00:26:21.889Z,101859.38
2023-05-09T00:28:14.938Z,101859.10
2023-05-09T00:30:08.609Z,101855.58
2023-05-09T00:32:01.477Z,101857.27
2023-05-09T00:33:54.397Z,101855.98
2023-05-09T00:35:47.551Z,101854.83
2023-05-09T00:37:40.607Z,101859.21
2023-05-09T00:39:33.445Z,101854.16
2023-05-09T00:41:26.474Z,101854.17
2023-05-09T00:43:19.342Z,101854.26
2023-05-09T00:45:12.425Z,101854.02
2023-05-09T00:47:06.773Z,101848.45
2023-05-09T00:48:59.725Z,101846.60
2023-05-09T00:50:53.306Z,101847.22
2023-05-09T00:52:46.651Z,101846.56
2023-05-09T00:54:39.796Z,101845.30
2023-05-09T00:56:32.846Z,101846.95
2023-05-09T00:58:25.897Z,101846.55
2023-05-09T01:00:18.859Z,101845.83
2023-05-09T01:02:11.916Z,101842.29
2023-05-09T01:04:05.663Z,101840.66
2023-05-09T01:06:11.128Z,101840.44
2023-05-09T01:08:13.265Z,101839.14
2023-05-09T01:10:32.203Z,101839.77
2023-05-09T01:12:37.462Z,101839.38
2023-05-09T01:14:55.614Z,101841.13
2023-05-09T01:17:02.777Z,101838.38
2023-05-09T01:19:08.000Z,101834.45
2023-05-09T01:21:07.705Z,101832.40
2023-05-09T01:23:34.578Z,101832.38
2023-05-09T01:25:41.856Z,101828.04
2023-05-09T01:27:53.772Z,101826.48
2023-05-09T01:29:57.249Z,101826.52
2023-05-09T01:31:51.933Z,101830.92
2023-05-09T01:33:48.496Z,101826.12
2023-05-09T01:35:46.120Z,101823.84
2023-05-09T01:37:42.085Z,101826.98
2023-05-09T01:39:38.644Z,101826.01
2023-05-09T01:41:36.375Z,101827.10
2023-05-09T01:43:31.060Z,101824.70
2023-05-09T01:45:26.416Z,101823.42
2023-05-09T01:47:20.302Z,101824.34
2023-05-09T01:49:13.962Z,101823.40
2023-05-09T01:51:09.440Z,101824.58
2023-05-09T01:53:03.343Z,101826.41
2023-05-09T01:54:57.516Z,101822.55
2023-05-09T01:56:51.504Z,101823.67
2023-05-09T01:58:48.433Z,101819.75
2023-05-09T02:00:42.257Z,101814.73
2023-05-09T02:02:36.444Z,101817.80
2023-05-09T02:04:30.973Z,101816.36
2023-05-09T02:06:24.933Z,101811.11
2023-05-09T02:08:21.336Z,101808.71
2023-05-09T02:10:16.055Z,101806.62
2023-05-09T02:12:09.014Z,101808.08
2023-05-09T02:14:01.954Z,101808.15
2023-05-09T02:15:56.736Z,101813.99
2023-05-09T02:17:50.040Z,101812.38
2023-05-09T02:19:44.020Z,101814.86
2023-05-09T02:21:37.023Z,101815.52
2023-05-09T02:23:30.815Z,101809.88
2023-05-09T02:25:23.934Z,101810.17
2023-05-09T02:27:18.120Z,101805.29
2023-05-09T02:29:11.982Z,101802.56
2023-05-09T02:31:09.234Z,101804.43
2023-05-09T02:33:05.112Z,101804.95
2023-05-09T02:35:01.170Z,101804.11
2023-05-09T02:36:54.222Z,101801.91
2023-05-09T02:38:47.378Z,101801.16
2023-05-09T02:40:43.572Z,101798.96
2023-05-09T02:42:36.771Z,101797.30
2023-05-09T02:44:29.606Z,101794.90
2023-05-09T02:46:22.498Z,101793.59
2023-05-09T02:48:15.393Z,101798.33
2023-05-09T02:50:08.756Z,101795.80
2023-05-09T02:52:01.952Z,101795.34
2023-05-09T02:53:54.957Z,101794.26
2023-05-09T02:55:47.807Z,101800.06
2023-05-09T02:57:40.746Z,101801.20
2023-05-09T02:59:33.899Z,101800.91
2023-05-09T03:01:28.126Z,101798.50
2023-05-09T03:03:22.388Z,101799.35
2023-05-09T03:05:16.197Z,101800.03
2023-05-09T03:07:09.377Z,101802.41
2023-05-09T03:09:02.737Z,101801.04
2023-05-09T03:10:56.198Z,101802.06
2023-05-09T03:12:49.532Z,101802.98
2023-05-09T03:14:42.517Z,101804.51
2023-05-09T03:16:35.975Z,101804.09
2023-05-09T03:18:29.319Z,101800.02
2023-05-09T03:20:22.272Z,101798.66
2023-05-09T03:22:16.140Z,101800.10
2023-05-09T03:24:23.320Z,101796.73
2023-05-09T03:26:16.378Z,101797.58
2023-05-09T03:28:09.523Z,101795.22
2023-05-09T03:30:02.573Z,101794.35
2023-05-09T03:31:55.497Z,101793.39
2023-05-09T03:33:48.571Z,101795.46
2023-05-09T03:35:41.624Z,101794.34
2023-05-09T03:37:34.983Z,101798.30
2023-05-09T03:39:28.030Z,101799.14
2023-05-09T03:41:22.835Z,101797.85
2023-05-09T03:43:16.284Z,101797.69
2023-05-09T03:45:09.791Z,101799.75
2023-05-09T03:47:02.968Z,101798.60
2023-05-09T03:49:01.887Z,101800.56
2023-05-09T03:50:55.038Z,101802.52
2023-05-09T03:52:48.501Z,101807.71
2023-05-09T03:54:42.470Z,101800.88
2023-05-09T03:56:35.420Z,101798.73
2023-05-09T03:58:28.378Z,101798.42
2023-05-09T04:00:22.770Z,101799.67
2023-05-09T04:02:19.469Z,101799.08
2023-05-09T04:04:13.516Z,101797.86
2023-05-09T04:06:07.041Z,101795.65
2023-05-09T04:08:04.278Z,101795.69
2023-05-09T04:09:57.525Z,101792.01
2023-05-09T04:11:50.483Z,101798.53
2023-05-09T04:13:43.338Z,101796.02
2023-05-09T04:15:48.119Z,101802.41
2023-05-09T04:17:41.115Z,101796.39
2023-05-09T04:19:33.957Z,101800.83
2023-05-09T04:21:27.007Z,101797.42
2023-05-09T04:23:22.107Z,101798.79
2023-05-09T04:25:16.137Z,101798.36
2023-05-09T04:27:09.318Z,101797.58
2023-05-09T04:29:02.488Z,101792.39
2023-05-09T04:30:55.519Z,101794.77
2023-05-09T04:32:49.128Z,101794.34
2023-05-09T04:34:42.430Z,101794.73
2023-05-09T04:36:40.106Z,101796.21
2023-05-09T04:38:33.360Z,101796.60
2023-05-09T04:40:27.048Z,101794.65
2023-05-09T04:42:24.170Z,101796.89
2023-05-09T04:44:17.330Z,101794.06
2023-05-09T04:46:11.224Z,101791.08
2023-05-09T04:48:04.689Z,101791.79
2023-05-09T04:49:57.725Z,101792.73
2023-05-09T04:51:53.213Z,101792.36
2023-05-09T04:53:46.058Z,101798.14
2023-05-09T04:55:39.060Z,101793.73
2023-05-09T04:57:32.055Z,101792.67
2023-05-09T04:59:25.211Z,101792.98
2023-05-09T05:01:19.108Z,101792.65
2023-05-09T05:03:13.060Z,101789.33
2023-05-09T05:05:12.060Z,101787.00
2023-05-09T05:07:07.506Z,101786.81
2023-05-09T05:09:01.728Z,101790.25
2023-05-09T05:10:54.569Z,101791.69
2023-05-09T05:12:47.463Z,101788.34
2023-05-09T05:14:40.451Z,101795.38
2023-05-09T05:16:34.407Z,101797.04
2023-05-09T05:18:27.596Z,101793.34
2023-05-09T05:20:21.329Z,101794.89
2023-05-09T05:22:15.026Z,101799.88
2023-05-09T05:24:08.484Z,101797.80
2023-05-09T05:26:01.666Z,101797.52
2023-05-09T05:27:57.149Z,101792.83
2023-05-09T05:29:49.992Z,101795.93
2023-05-09T05:31:42.883Z,101792.34
2023-05-09T05:33:35.790Z,101793.78
2023-05-09T05:35:29.508Z,101799.27
2023-05-09T05:37:23.504Z,101797.14
2023-05-09T05:39:16.386Z,101791.95
2023-05-09T05:41:11.574Z,101794.06
2023-05-09T05:43:05.049Z,101790.36
2023-05-09T05:45:04.585Z,101785.81
2023-05-09T05:46:58.197Z,101790.23
2023-05-09T05:48:52.395Z,101784.45
2023-05-09T05:50:46.036Z,101784.15
2023-05-09T05:52:41.765Z,101786.02
2023-05-09T05:54:36.525Z,101785.63
2023-05-09T05:56:29.383Z,101787.38
2023-05-09T05:58:22.557Z,101786.28
2023-05-09T06:00:16.515Z,101788.01
2023-05-09T06:02:16.266Z,101789.17
2023-05-09T06:04:09.320Z,101789.60
2023-05-09T06:06:02.418Z,101786.36
2023-05-09T06:07:55.365Z,101782.64
2023-05-09T06:09:48.225Z,101783.85
2023-05-09T06:11:41.147Z,101783.53
2023-05-09T06:13:34.732Z,101780.77
2023-05-09T06:15:30.129Z,101780.85
2023-05-09T06:17:23.288Z,101780.89
2023-05-09T06:19:16.355Z,101777.77
2023-05-09T06:21:09.691Z,101773.73
2023-05-09T06:23:02.758Z,101781.39
2023-05-09T06:24:56.012Z,101780.47
2023-05-09T06:27:01.300Z,101781.61
2023-05-09T06:28:54.623Z,101783.58
2023-05-09T06:30:47.728Z,101785.08
2023-05-09T06:32:40.719Z,101785.45
2023-05-09T06:34:33.641Z,101784.14
2023-05-09T06:36:26.591Z,101773.20
2023-05-09T06:38:19.437Z,101776.60
2023-05-09T06:40:12.388Z,101770.34
2023-05-09T06:42:05.438Z,101767.38
2023-05-09T06:43:59.115Z,101766.67
2023-05-09T06:45:52.494Z,101765.60
2023-05-09T06:47:46.029Z,101765.98
2023-05-09T06:49:46.844Z,101769.48
2023-05-09T06:51:39.905Z,101761.96
2023-05-09T06:53:32.751Z,101761.05
2023-05-09T06:55:25.596Z,101760.73
2023-05-09T06:57:18.528Z,101760.70
2023-05-09T06:59:13.543Z,101754.07
2023-05-09T07:01:07.826Z,101755.04
2023-05-09T07:03:01.202Z,101751.95
2023-05-09T07:04:55.854Z,101753.61
2023-05-09T07:06:56.429Z,101749.27
2023-05-09T07:08:49.560Z,101746.61
2023-05-09T07:10:42.720Z,101740.42
2023-05-09T07:12:35.966Z,101738.30
2023-05-09T07:14:30.153Z,101737.04
2023-05-09T07:16:23.542Z,101737.41
2023-05-09T07:18:16.794Z,101730.74
2023-05-09T07:20:13.621Z,101730.38
2023-05-09T07:22:06.905Z,101729.78
2023-05-09T07:24:00.314Z,101723.66
2023-05-09T07:25:59.745Z,101724.77
2023-05-09T07:27:53.212Z,101724.44
2023-05-09T07:29:46.653Z,101720.44
2023-05-09T07:31:39.874Z,101723.69
2023-05-09T07:33:33.953Z,101723.89
2023-05-09T07:35:27.810Z,101726.30
2023-05-09T07:37:21.908Z,101722.98
2023-05-09T07:39:15.084Z,101722.63
2023-05-09T07:41:08.213Z,101714.48
2023-05-09T07:43:01.383Z,101712.86
2023-05-09T07:44:54.830Z,101711.79
2023-05-09T07:46:48.184Z,101707.71
2023-05-09T07:48:41.360Z,101705.36
2023-05-09T07:50:34.621Z,101709.11
2023-05-09T07:52:31.589Z,101704.77
2023-05-09T07:54:25.198Z,101705.23
2023-05-09T07:56:18.439Z,101697.95
2023-05-09T07:58:15.411Z,101699.77
2023-05-09T08:00:10.725Z,101695.24
2023-05-09T08:02:06.709Z,101695.14
2023-05-09T08:04:03.344Z,101693.30
2023-05-09T08:05:58.446Z,101694.61
2023-05-09T08:07:52.909Z,101694.27
2023-05-09T08:09:45.869Z,101692.95
2023-05-09T08:11:38.923Z,101690.69
2023-05-09T08:13:31.888Z,101689.22
2023-05-09T08:15:25.132Z,101685.18
2023-05-09T08:17:23.261Z,101681.49
2023-05-09T08:19:16.788Z,101680.50
2023-05-09T08:21:10.538Z,101684.07
2023-05-09T08:23:04.402Z,101681.63
2023-05-09T08:24:57.920Z,101680.98
2023-05-09T08:26:51.407Z,101674.64
2023-05-09T08:28:44.862Z,101676.95
2023-05-09T08:30:52.470Z,101679.19
2023-05-09T08:32:45.778Z,101669.20
2023-05-09T08:34:38.925Z,101667.19
2023-05-09T08:36:32.770Z,101665.97
2023-05-09T08:38:31.777Z,101666.06
2023-05-09T08:40:24.850Z,101660.80
2023-05-09T08:42:24.678Z,101659.39
2023-05-09T08:44:21.736Z,101655.45
2023-05-09T08:46:16.569Z,101655.84
2023-05-09T08:48:10.164Z,101651.57
2023-05-09T08:50:04.476Z,101650.06
2023-05-09T08:51:57.861Z,101643.20
2023-05-09T08:53:52.044Z,101640.73
2023-05-09T08:55:46.909Z,101645.42
2023-05-09T08:57:40.430Z,101640.30
2023-05-09T08:59:37.367Z,101637.58
2023-05-09T09:01:30.898Z,101642.17
2023-05-09T09:03:26.370Z,101637.45
2023-05-09T09:05:39.988Z,101640.69
2023-05-09T09:07:36.461Z,101639.41
2023-05-09T09:09:29.698Z,101642.48
2023-05-09T09:11:23.372Z,101633.27
2023-05-09T09:13:18.626Z,101634.55
2023-05-09T09:15:17.933Z,101642.45
2023-05-09T09:17:15.432Z,101637.61
2023-05-09T09:19:13.207Z,101635.40
2023-05-09T09:21:09.837Z,101623.84
2023-05-09T09:23:05.669Z,101629.98
2023-05-09T09:25:00.326Z,101623.59
2023-05-09T09:26:53.376Z,101623.44
2023-05-09T09:29:07.621Z,101618.63
2023-05-09T09:31:02.487Z,101611.09
2023-05-09T09:33:00.713Z,101614.60
2023-05-09T09:35:07.980Z,101606.65
2023-05-09T09:37:02.686Z,101600.02
2023-05-09T09:39:00.933Z,101601.33
2023-05-09T09:40:58.896Z,101603.27
2023-05-09T09:42:52.466Z,101594.56
2023-05-09T09:44:45.403Z,101594.33
2023-05-09T09:46:48.387Z,101586.89
2023-05-09T09:48:52.932Z,101590.84
2023-05-09T09:50:47.976Z,101592.34
2023-05-09T09:52:51.817Z,101591.75
2023-05-09T09:54:44.975Z,101582.23
2023-05-09T09:56:46.613Z,101588.19
2023-05-09T09:58:39.472Z,101591.01
2023-05-09T10:00:32.926Z,101588.46
2023-05-09T10:02:26.173Z,101577.87
2023-05-09T10:04:19.082Z,101584.09
2023-05-09T10:06:14.422Z,101578.55
2023-05-09T10:08:10.049Z,101570.29
2023-05-09T10:10:06.213Z,101569.95
2023-05-09T10:12:03.718Z,101564.73
2023-05-09T10:13:56.666Z,101562.49
2023-05-09T10:15:53.861Z,101561.80
2023-05-09T10:17:52.360Z,101554.45
2023-05-09T10:19:46.561Z,101552.45
2023-05-09T10:21:40.863Z,101550.87
2023-05-09T10:23:39.849Z,101548.63
2023-05-09T10:25:44.530Z,101556.04
2023-05-09T10:27:39.081Z,101552.91
2023-05-09T10:29:37.827Z,101545.83
2023-05-09T10:31:34.930Z,101544.86
2023-05-09T10:33:38.591Z,101538.18
2023-05-09T10:35:36.690Z,101535.72
2023-05-09T10:37:30.984Z,101529.70
2023-05-09T10:39:24.592Z,101523.88
2023-05-09T10:41:19.024Z,101520.40
2023-05-09T10:43:15.389Z,101521.19
2023-05-09T10:45:10.158Z,101518.06
2023-05-09T10:47:03.491Z,101514.27
2023-05-09T10:48:57.104Z,101511.05
2023-05-09T10:50:50.359Z,101513.04
2023-05-09T10:53:05.942Z,101506.29
2023-05-09T10:55:04.327Z,101501.31
2023-05-09T10:56:58.083Z,101501.34
2023-05-09T10:58:50.921Z,101493.98
2023-05-09T11:00:44.499Z,101491.67
2023-05-09T11:02:39.294Z,101489.23
2023-05-09T11:04:34.194Z,101488.24
2023-05-09T11:06:49.784Z,101484.96
2023-05-09T11:08:42.959Z,101484.17
2023-05-09T11:10:42.885Z,101482.34
2023-05-09T11:13:01.586Z,101481.69
2023-05-09T11:15:05.880Z,101478.74
2023-05-09T11:17:00.369Z,101474.70
2023-05-09T11:18:53.451Z,101468.13
2023-05-09T11:20:49.590Z,101466.55
2023-05-09T11:22:45.054Z,101470.39
2023-05-09T11:24:38.416Z,101454.75
2023-05-09T11:26:31.581Z,101450.73
2023-05-09T11:28:33.779Z,101450.25
2023-05-09T11:30:39.889Z,101449.63
2023-05-09T11:32:40.463Z,101447.10
2023-05-09T11:34:34.914Z,101448.45
2023-05-09T11:36:35.190Z,101439.63
2023-05-09T11:38:42.044Z,101440.88
2023-05-09T11:40:35.476Z,101439.23
2023-05-09T11:42:29.444Z,101436.45
2023-05-09T11:44:22.233Z,101438.56
2023-05-09T11:46:15.172Z,101436.11
2023-05-09T11:48:11.222Z,101429.42
2023-05-09T11:50:08.182Z,101428.20
2023-05-09T11:52:01.229Z,101426.48
2023-05-09T11:53:54.271Z,101415.87
2023-05-09T11:55:47.990Z,101416.52
2023-05-09T11:57:50.109Z,101407.34
2023-05-09T11:59:45.572Z,101402.45
2023-05-09T12:01:38.977Z,101404.77
2023-05-09T12:03:32.008Z,101405.15
2023-05-09T12:05:26.445Z,101395.36
2023-05-09T12:07:20.319Z,101389.80
2023-05-09T12:09:16.291Z,101380.02
2023-05-09T12:11:10.161Z,101383.05
2023-05-09T12:13:03.294Z,101375.70
2023-05-09T12:14:57.707Z,101378.59
2023-05-09T12:16:50.716Z,101389.05
2023-05-09T12:18:51.774Z,101383.63
2023-05-09T12:20:48.519Z,101380.71
2023-05-09T12:22:43.823Z,101375.34
2023-05-09T12:24:37.809Z,101374.10
2023-05-09T12:26:31.362Z,101374.09
2023-05-09T12:28:25.644Z,101368.20
2023-05-09T12:30:19.203Z,101362.27
2023-05-09T12:32:14.519Z,101360.27
2023-05-09T12:34:10.234Z,101352.67
2023-05-09T12:36:03.609Z,101350.10
2023-05-09T12:37:59.095Z,101354.21
2023-05-09T12:40:06.769Z,101348.41
2023-05-09T12:42:02.021Z,101351.20
2023-05-09T12:43:56.604Z,101353.11
2023-05-09T12:45:52.896Z,101345.64
2023-05-09T12:47:45.916Z,101336.32
2023-05-09T12:49:38.898Z,101341.77
2023-05-09T12:51:31.843Z,101333.27
2023-05-09T12:53:32.181Z,101327.88
2023-05-09T12:55:25.008Z,101327.48
2023-05-09T12:57:29.508Z,101322.52
2023-05-09T12:59:26.869Z,101318.29
2023-05-09T13:01:21.631Z,101322.73
2023-05-09T13:03:27.468Z,101317.20
2023-05-09T13:05:22.812Z,101315.30
2023-05-09T13:07:16.181Z,101312.80
2023-05-09T13:09:11.104Z,101313.83
2023-05-09T13:11:15.566Z,101302.46
2023-05-09T13:13:18.816Z,101300.23
2023-05-09T13:15:13.075Z,101294.25
2023-05-09T13:17:06.959Z,101300.89
2023-05-09T13:19:01.650Z,101294.82
2023-05-09T13:20:58.367Z,101294.79
2023-05-09T13:22:51.620Z,101288.21
2023-05-09T13:24:44.452Z,101280.56
2023-05-09T13:26:37.414Z,101277.98
2023-05-09T13:28:30.255Z,101279.27
2023-05-09T13:30:23.230Z,101273.58
2023-05-09T13:32:16.357Z,101277.58
2023-05-09T13:34:09.142Z,101274.35
2023-05-09T13:36:02.030Z,101274.19
2023-05-09T13:37:54.888Z,101265.46
2023-05-09T13:39:48.680Z,101266.25
2023-05-09T13:41:41.510Z,101266.51
2023-05-09T13:43:35.268Z,101265.69
2023-05-09T13:45:28.083Z,101257.64
2023-05-09T13:47:21.284Z,101261.82
2023-05-09T13:49:14.101Z,101253.95
2023-05-09T13:51:07.910Z,101252.19
2023-05-09T13:53:00.944Z,101245.67
2023-05-09T13:54:54.301Z,101241.98
2023-05-09T13:57:05.200Z,101245.16
2023-05-09T13:58:58.081Z,101236.04
2023-05-09T14:00:55.173Z,101236.22
2023-05-09T14:03:09.440Z,101234.33
2023-05-09T14:05:04.521Z,101231.24
2023-05-09T14:06:58.367Z,101233.33
2023-05-09T14:08:51.312Z,101222.68
2023-05-09T14:10:45.957Z,101217.48
2023-05-09T14:12:45.179Z,101215.27
2023-05-09T14:14:38.659Z,101211.09
2023-05-09T14:16:31.564Z,101211.80
2023-05-09T14:18:24.547Z,101204.86
2023-05-09T14:20:18.265Z,101202.46
2023-05-09T14:22:11.578Z,101202.66
2023-05-09T14:24:04.933Z,101199.86
2023-05-09T14:25:59.236Z,101196.84
2023-05-09T14:27:53.721Z,101194.55
2023-05-09T14:29:46.682Z,101190.08
2023-05-09T14:31:40.130Z,101184.25
2023-05-09T14:33:33.165Z,101182.06
2023-05-09T14:35:26.244Z,101179.01
2023-05-09T14:37:19.277Z,101178.89
2023-05-09T14:39:12.616Z,101177.36
2023-05-09T14:41:07.000Z,101177.31
2023-05-09T14:43:02.562Z,101172.55
2023-05-09T14:44:55.866Z,101168.64
2023-05-09T14:46:49.006Z,101168.13
2023-05-09T14:48:41.976Z,101166.56
2023-05-09T14:50:34.914Z,101163.21
2023-05-09T14:52:28.898Z,101157.64
2023-05-09T14:54:22.044Z,101154.80
2023-05-09T14:56:14.898Z,101155.21
2023-05-09T14:58:09.067Z,101153.31
2023-05-09T15:02:00.591Z,101156.16
2023-05-09T15:03:53.592Z,101154.50
2023-05-09T15:05:50.001Z,101152.13
2023-05-09T15:07:42.930Z,101144.70
2023-05-09T15:09:35.785Z,101138.79
2023-05-09T15:11:33.347Z,101141.37
2023-05-09T15:13:32.767Z,101142.25
2023-05-09T15:15:26.484Z,101135.25
2023-05-09T15:17:20.249Z,101130.85
2023-05-09T15:19:13.100Z,101125.66
2023-05-09T15:21:05.945Z,101124.02
2023-05-09T15:22:58.825Z,101115.83
2023-05-09T15:24:51.686Z,101117.09
2023-05-09T15:26:44.795Z,101111.20
2023-05-09T15:28:39.567Z,101109.80
2023-05-09T15:30:32.631Z,101107.37
2023-05-09T15:32:26.124Z,101110.95
2023-05-09T15:34:19.657Z,101104.81
2023-05-09T15:36:12.828Z,101105.06
2023-05-09T15:38:05.754Z,101108.96
2023-05-09T15:39:59.011Z,101109.23
2023-05-09T15:41:51.970Z,101106.17
2023-05-09T15:43:44.815Z,101099.70
2023-05-09T15:45:38.984Z,101098.02
2023-05-09T15:47:31.836Z,101100.25
2023-05-09T15:49:25.083Z,101096.34
2023-05-09T15:51:17.861Z,101096.40
2023-05-09T15:53:11.230Z,101094.48
2023-05-09T15:55:04.780Z,101087.31
2023-05-09T15:56:58.205Z,101083.04
2023-05-09T15:58:51.156Z,101077.48
2023-05-09T16:00:45.644Z,101075.39
2023-05-09T16:02:38.565Z,101078.92
2023-05-09T16:04:32.666Z,101071.17
2023-05-09T16:06:26.836Z,101068.13
2023-05-09T16:08:19.689Z,101068.50
2023-05-09T16:10:14.176Z,101066.50
2023-05-09T16:12:08.042Z,101063.95
2023-05-09T16:14:01.249Z,101059.54
2023-05-09T16:15:54.270Z,101050.70
2023-05-09T16:17:47.194Z,101053.44
2023-05-09T16:19:40.651Z,101051.90
2023-05-09T16:21:33.668Z,101049.18
2023-05-09T16:23:26.703Z,101049.83
2023-05-09T16:25:19.727Z,101044.77
2023-05-09T16:27:14.516Z,101048.00
2023-05-09T16:29:07.440Z,101041.27
2023-05-09T16:31:01.002Z,101038.33
2023-05-09T16:32:54.062Z,101036.17
2023-05-09T16:34:47.511Z,101031.23
2023-05-09T16:36:40.474Z,101028.63
2023-05-09T16:38:33.410Z,101026.48
2023-05-09T16:40:26.264Z,101025.79
2023-05-09T16:42:19.108Z,101022.72
2023-05-09T16:44:13.051Z,101025.30
2023-05-09T16:46:06.739Z,101021.42
2023-05-09T16:48:01.487Z,101024.21
2023-05-09T16:49:55.393Z,101021.50
2023-05-09T16:51:48.245Z,101018.06
2023-05-09T16:53:41.608Z,101016.71
2023-05-09T16:55:34.448Z,101016.45
2023-05-09T16:57:27.298Z,101008.52
2023-05-09T16:59:20.956Z,101006.86
2023-05-09T17:01:13.833Z,101005.98
2023-05-09T17:03:07.292Z,101005.05
2023-05-09T17:05:00.191Z,101002.13
2023-05-09T17:06:53.365Z,101003.43
2023-05-09T17:08:46.518Z,100999.21
2023-05-09T17:10:41.441Z,101000.04
2023-05-09T17:12:35.383Z,100995.90
2023-05-09T17:14:28.327Z,100996.01
2023-05-09T17:16:21.201Z,100992.95
2023-05-09T17:18:19.331Z,100987.58
2023-05-09T17:20:18.678Z,100989.96
2023-05-09T17:22:11.717Z,100985.70
2023-05-09T17:24:04.649Z,100983.85
2023-05-09T17:25:57.496Z,100982.84
2023-05-09T17:27:50.545Z,100978.14
2023-05-09T17:29:43.393Z,100977.79
2023-05-09T17:31:36.258Z,100975.68
2023-05-09T17:33:29.290Z,100978.46
2023-05-09T17:35:23.053Z,100979.03
2023-05-09T17:37:17.128Z,100976.08
2023-05-09T17:39:09.981Z,100974.05
2023-05-09T17:41:02.914Z,100977.02
2023-05-09T17:42:55.868Z,100977.08
2023-05-09T17:44:50.454Z,100982.23
2023-05-09T17:46:44.218Z,100979.38
2023-05-09T17:48:37.326Z,100978.31
2023-05-09T17:50:33.688Z,100981.73
2023-05-09T17:52:27.674Z,100984.42
2023-05-09T17:54:21.238Z,100982.83
2023-05-09T17:56:14.096Z,100983.03
2023-05-09T17:58:08.259Z,100979.95
2023-05-09T18:00:01.105Z,100980.38
2023-05-09T18:01:55.057Z,100983.09
2023-05-09T18:03:48.431Z,100985.42
2023-05-09T18:05:41.795Z,100985.89
2023-05-09T18:07:34.747Z,100985.34
2023-05-09T18:09:28.306Z,100991.23
2023-05-09T18:11:22.558Z,100986.96
2023-05-09T18:13:15.450Z,100985.41
2023-05-09T18:15:08.887Z,100986.45
2023-05-09T18:17:02.153Z,100979.19
2023-05-09T18:18:54.943Z,100981.13
2023-05-09T18:20:48.052Z,100978.92
2023-05-09T18:22:42.169Z,100976.88
2023-05-09T18:24:36.902Z,100976.00
2023-05-09T18:26:29.751Z,100974.39
2023-05-09T18:28:24.969Z,100977.52
2023-05-09T18:30:18.871Z,100976.99
2023-05-09T18:32:13.902Z,100978.31
2023-05-09T18:34:07.736Z,100980.77
2023-05-09T18:36:01.262Z,100981.23
2023-05-09T18:37:54.517Z,100979.34
2023-05-09T18:39:47.765Z,100981.89
2023-05-09T18:41:41.638Z,100979.41
2023-05-09T18:43:36.057Z,100980.09
2023-05-09T18:45:29.320Z,100982.38
2023-05-09T18:47:23.984Z,100989.61
2023-05-09T18:49:17.631Z,100990.70
2023-05-09T18:51:11.085Z,100992.20
2023-05-09T18:53:03.928Z,100994.38
2023-05-09T18:54:56.975Z,100994.39
2023-05-09T18:56:50.039Z,100992.44
2023-05-09T18:58:42.869Z,100995.07
2023-05-09T19:00:36.265Z,100996.61
2023-05-09T19:02:30.303Z,100999.24
2023-05-09T19:04:23.609Z,101001.49
2023-05-09T19:06:16.612Z,101000.80
2023-05-09T19:08:10.329Z,101000.85
2023-05-09T19:10:04.888Z,100999.55
2023-05-09T19:11:59.658Z,100995.92
2023-05-09T19:13:53.297Z,100998.41
2023-05-09T19:15:50.090Z,100998.63
2023-05-09T19:17:43.953Z,100994.13
2023-05-09T19:19:40.882Z,100994.93
2023-05-09T19:21:35.942Z,101000.02
2023-05-09T19:23:30.277Z,101001.66
2023-05-09T19:25:24.008Z,101001.73
2023-05-09T19:27:19.551Z,101003.34
2023-05-09T19:29:12.471Z,101003.15
2023-05-09T19:31:05.359Z,101001.05
2023-05-09T19:32:58.388Z,100998.63
2023-05-09T19:34:51.233Z,100993.45
2023-05-09T19:36:44.069Z,100993.48
2023-05-09T19:38:37.004Z,100992.84
2023-05-09T19:40:29.993Z,100993.23
2023-05-09T19:42:22.898Z,100995.45
2023-05-09T19:44:15.751Z,100991.73
2023-05-09T19:46:08.791Z,100991.30
2023-05-09T19:48:04.878Z,100990.31
2023-05-09T19:49:59.505Z,100991.26
2023-05-09T19:51:52.664Z,100988.49
2023-05-09T19:53:47.363Z,100992.52
2023-05-09T19:55:41.422Z,100990.21
2023-05-09T19:57:34.289Z,100993.67
2023-05-09T19:59:27.332Z,100990.09
2023-05-09T20:01:21.012Z,100990.95
2023-05-09T20:03:14.329Z,100992.36
2023-05-09T20:05:07.958Z,100991.98
2023-05-09T20:07:02.326Z,100990.15
2023-05-09T20:08:55.576Z,100991.46
2023-05-09T20:10:48.501Z,100988.38
2023-05-09T20:12:41.994Z,100988.23
2023-05-09T20:14:35.724Z,100986.35
2023-05-09T20:16:28.706Z,100984.96
2023-05-09T20:18:22.036Z,100980.61
2023-05-09T20:20:15.225Z,100983.73
2023-05-09T20:22:09.080Z,100980.04
2023-05-09T20:24:02.208Z,100978.00
2023-05-09T20:25:56.017Z,100976.06
2023-05-09T20:27:49.028Z,100975.44
2023-05-09T20:29:41.980Z,100975.83
2023-05-09T20:31:35.043Z,100973.86
2023-05-09T20:33:27.989Z,100972.72
2023-05-09T20:35:21.030Z,100975.12
2023-05-09T20:37:13.926Z,100974.15
2023-05-09T20:39:07.394Z,100978.55
2023-05-09T20:41:01.604Z,100976.45
2023-05-09T20:42:54.555Z,100975.61
2023-05-09T20:44:48.941Z,100974.61
2023-05-09T20:46:42.139Z,100972.14
2023-05-09T20:48:36.109Z,100971.68
2023-05-09T20:50:30.572Z,100971.43
2023-05-09T20:52:23.804Z,100971.05
2023-05-09T20:54:17.982Z,100969.59
2023-05-09T20:56:11.129Z,100963.17
2023-05-09T20:58:04.079Z,100963.76
2023-05-09T20:59:57.261Z,100964.92
2023-05-09T21:01:52.707Z,100961.20
2023-05-09T21:03:46.410Z,100965.83
2023-05-09T21:05:58.822Z,100963.77
2023-05-09T21:08:33.392Z,100960.33
2023-05-09T21:10:32.880Z,100959.02
2023-05-09T21:12:29.481Z,100958.94
2023-05-09T21:14:23.452Z,100960.33
2023-05-09T21:16:16.504Z,100959.98
2023-05-09T21:18:09.580Z,100956.04
2023-05-09T21:20:02.698Z,100951.30
2023-05-09T21:21:55.764Z,100953.10
2023-05-09T21:23:48.700Z,100951.50
2023-05-09T21:25:42.667Z,100949.27
2023-05-09T21:27:35.921Z,100951.30
2023-05-09T21:29:28.866Z,100949.02
2023-05-09T21:31:21.883Z,100944.63
2023-05-09T21:33:15.075Z,100947.48
2023-05-09T21:35:11.072Z,100948.61
2023-05-09T21:37:03.939Z,100944.08
2023-05-09T21:38:56.781Z,100942.40
2023-05-09T21:40:51.352Z,100938.13
2023-05-09T21:42:44.330Z,100939.25
2023-05-09T21:44:37.675Z,100937.77
2023-05-09T21:46:33.286Z,100938.42
2023-05-09T21:48:26.341Z,100937.41
2023-05-09T21:50:19.381Z,100936.77
2023-05-09T21:52:12.347Z,100936.18
2023-05-09T21:54:05.390Z,100939.37